createdAt,value
2022-09-05T00:02:24.238Z,0.30
2022-09-05T00:05:01.634Z,0.40
2022-09-05T00:07:58.162Z,0.30
2022-09-05T00:11:18.103Z,0.30
2022-09-05T00:13:41.464Z,0.20
2022-09-05T00:16:44.990Z,0.30
2022-09-05T00:24:14.928Z,0.60
2022-09-05T00:24:37.053Z,0.35
2022-09-05T00:25:46.837Z,0.30
2022-09-05T00:28:26.100Z,0.40
2022-09-05T00:31:54.682Z,0.30
2022-09-05T00:34:19.963Z,0.30
2022-09-05T00:36:54.227Z,0.50
2022-09-05T00:39:28.394Z,0.40
2022-09-05T00:42:01.336Z,0.40
2022-09-05T00:44:36.145Z,0.30
2022-09-05T00:47:13.730Z,0.30
2022-09-05T00:49:49.814Z,0.30
2022-09-05T00:52:28.103Z,0.50
2022-09-05T00:55:21.125Z,0.40
2022-09-05T00:58:11.484Z,0.30
2022-09-05T01:00:54.534Z,0.40
2022-09-05T01:03:38.451Z,0.40
2022-09-05T01:06:28.100Z,0.32
2022-09-05T01:09:22.076Z,0.40
2022-09-05T01:12:02.460Z,0.40
2022-09-05T01:14:48.332Z,0.30
2022-09-05T01:17:39.923Z,0.50
2022-09-05T01:20:57.226Z,0.40
2022-09-05T01:24:07.082Z,0.40
2022-09-05T01:27:21.385Z,0.50
2022-09-05T01:30:00.126Z,0.40
2022-09-05T01:32:39.428Z,0.40
2022-09-05T01:35:38.425Z,0.40
2022-09-05T01:38:15.158Z,0.38
2022-09-05T01:41:18.021Z,0.40
2022-09-05T01:44:23.202Z,0.30
2022-09-05T01:47:09.811Z,0.40
2022-09-05T01:50:00.736Z,0.40
2022-09-05T01:52:58.745Z,0.40
2022-09-05T01:56:04.293Z,0.45
2022-09-05T01:58:54.116Z,0.50
2022-09-05T02:01:33.390Z,0.50
2022-09-05T02:04:38.705Z,0.43
2022-09-05T02:07:30.831Z,0.45
2022-09-05T02:10:31.615Z,0.43
2022-09-05T02:13:14.631Z,0.52
2022-09-05T02:15:59.084Z,0.40
2022-09-05T02:18:44.568Z,0.50
2022-09-05T02:21:23.975Z,0.60
2022-09-05T02:24:04.298Z,0.50
2022-09-05T02:26:38.432Z,0.32
2022-09-05T02:29:28.444Z,0.50
2022-09-05T02:32:05.169Z,0.40
2022-09-05T02:34:43.400Z,0.40
2022-09-05T02:38:13.291Z,0.30
2022-09-05T02:45:10.844Z,0.60
2022-09-05T02:45:18.189Z,0.50
2022-09-05T02:46:14.367Z,0.50
2022-09-05T02:48:58.118Z,0.40
2022-09-05T02:57:27.556Z,0.40
2022-09-05T02:57:40.615Z,0.30
2022-09-05T02:58:06.291Z,0.50
2022-09-05T03:00:32.524Z,0.60
2022-09-05T03:03:24.494Z,0.50
2022-09-05T03:06:08.889Z,0.50
2022-09-05T03:09:17.286Z,0.40
2022-09-05T03:12:28.921Z,0.40
2022-09-05T03:15:50.116Z,0.40
2022-09-05T03:18:50.692Z,0.40
2022-09-05T03:21:49.462Z,0.47
2022-09-05T03:24:54.182Z,0.53
2022-09-05T03:28:10.620Z,0.50
2022-09-05T03:31:07.109Z,0.50
2022-09-05T03:34:28.887Z,0.50
2022-09-05T03:37:41.148Z,0.30
2022-09-05T03:40:43.776Z,0.40
2022-09-05T03:43:37.682Z,0.40
2022-09-05T03:46:22.982Z,0.47
2022-09-05T03:50:31.181Z,0.50
2022-09-05T03:57:10.353Z,0.43
2022-09-05T03:57:15.841Z,0.50
2022-09-05T03:58:55.977Z,0.50
2022-09-05T04:04:58.992Z,0.53
2022-09-05T04:08:24.412Z,0.57
2022-09-05T04:08:29.746Z,0.40
2022-09-05T04:10:33.592Z,0.43
2022-09-05T04:13:10.203Z,0.47
2022-09-05T04:15:47.838Z,0.60
2022-09-05T04:18:33.750Z,0.50
2022-09-05T04:21:14.576Z,0.50
2022-09-05T04:24:01.524Z,0.60
2022-09-05T04:27:01.932Z,0.60
2022-09-05T04:29:44.700Z,0.60
2022-09-05T04:32:32.291Z,0.60
2022-09-05T04:35:20.949Z,0.50
2022-09-05T04:37:55.766Z,0.50
2022-09-05T04:40:47.841Z,0.57
2022-09-05T04:43:26.967Z,0.50
2022-09-05T04:46:03.225Z,0.50
2022-09-05T04:48:39.716Z,0.60
2022-09-05T04:51:30.169Z,0.60
2022-09-05T04:54:21.924Z,0.73
2022-09-05T04:56:56.164Z,0.60
2022-09-05T05:01:48.791Z,0.75
2022-09-05T05:06:14.889Z,0.63
2022-09-05T05:06:18.350Z,0.52
2022-09-05T05:08:30.359Z,0.55
2022-09-05T05:17:29.830Z,0.63
2022-09-05T05:18:10.380Z,0.55
2022-09-05T05:18:11.317Z,0.65
2022-09-05T05:20:40.626Z,0.70
2022-09-05T05:22:58.141Z,0.70
2022-09-05T05:25:48.179Z,0.80
2022-09-05T05:28:25.590Z,0.70
2022-09-05T05:31:01.784Z,0.80
2022-09-05T05:33:35.474Z,0.90
2022-09-05T05:36:08.861Z,0.80
2022-09-05T05:38:45.100Z,0.80
2022-09-05T05:41:22.787Z,0.80
2022-09-05T05:43:52.510Z,0.80
2022-09-05T05:46:36.894Z,0.80
2022-09-05T05:49:18.993Z,0.80
2022-09-05T05:52:03.086Z,0.80
2022-09-05T05:54:43.386Z,0.60
2022-09-05T05:57:57.194Z,0.80
2022-09-05T06:00:38.676Z,0.77
2022-09-05T06:03:43.998Z,0.80
2022-09-05T06:06:38.183Z,1.03
2022-09-05T06:14:54.960Z,1.02
2022-09-05T06:15:04.230Z,1.02
2022-09-05T06:16:21.758Z,1.10
2022-09-05T06:19:28.887Z,0.80
2022-09-05T06:22:45.606Z,0.82
2022-09-05T06:25:46.801Z,1.07
2022-09-05T06:28:26.636Z,0.70
2022-09-05T06:31:29.090Z,0.70
2022-09-05T06:34:33.556Z,1.10
2022-09-05T06:37:16.635Z,1.10
2022-09-05T06:40:03.997Z,1.05
2022-09-05T06:42:44.246Z,0.98
2022-09-05T06:45:38.108Z,0.80
2022-09-05T06:48:32.109Z,0.98
2022-09-05T06:51:48.634Z,0.98
2022-09-05T06:55:13.579Z,0.73
2022-09-05T06:58:30.149Z,1.10
2022-09-05T07:01:02.405Z,0.90
2022-09-05T07:03:59.604Z,0.97
2022-09-05T07:07:06.798Z,0.90
2022-09-05T07:09:52.303Z,0.80
2022-09-05T07:12:30.229Z,0.90
2022-09-05T07:15:10.600Z,0.90
2022-09-05T07:18:09.588Z,0.75
2022-09-05T07:21:15.823Z,0.83
2022-09-05T07:24:09.084Z,0.90
2022-09-05T07:26:51.820Z,0.77
2022-09-05T07:29:27.708Z,0.68
2022-09-05T07:31:59.578Z,0.70
2022-09-05T07:34:31.738Z,0.90
2022-09-05T07:37:15.097Z,0.80
2022-09-05T07:39:49.398Z,0.90
2022-09-05T07:42:24.703Z,0.75
2022-09-05T07:44:57.899Z,0.70
2022-09-05T07:47:31.397Z,0.80
2022-09-05T07:51:59.227Z,0.70
2022-09-05T07:56:59.937Z,0.85
2022-09-05T07:57:10.878Z,0.80
2022-09-05T07:58:45.980Z,0.77
2022-09-05T08:01:17.942Z,0.60
2022-09-05T08:03:46.834Z,0.70
2022-09-05T08:07:46.511Z,0.63
2022-09-05T08:10:06.795Z,0.80
2022-09-05T08:12:11.445Z,0.80
2022-09-05T08:14:52.855Z,0.80
2022-09-05T08:17:26.278Z,0.57
2022-09-05T08:20:17.619Z,0.70
2022-09-05T08:22:56.188Z,0.57
2022-09-05T08:25:37.560Z,0.68
2022-09-05T08:28:26.249Z,0.70
2022-09-05T08:31:14.406Z,0.80
2022-09-05T08:33:44.492Z,0.80
2022-09-05T08:36:22.834Z,0.73
2022-09-05T08:38:52.031Z,0.60
2022-09-05T08:41:43.062Z,0.70
2022-09-05T08:46:36.406Z,0.70
2022-09-05T08:47:24.223Z,0.90
2022-09-05T08:50:26.882Z,0.60
2022-09-05T08:53:28.133Z,0.70
2022-09-05T08:56:06.555Z,0.77
2022-09-05T08:59:27.506Z,0.60
2022-09-05T09:02:44.823Z,0.60
2022-09-05T09:05:14.189Z,0.70
2022-09-05T09:07:52.053Z,0.52
2022-09-05T09:10:34.933Z,0.68
2022-09-05T09:13:29.212Z,0.75
2022-09-05T09:16:06.598Z,0.70
2022-09-05T09:19:02.259Z,0.68
2022-09-05T09:21:36.664Z,0.50
2022-09-05T09:24:18.861Z,0.52
2022-09-05T09:26:56.657Z,0.60
2022-09-05T09:29:27.832Z,0.75
2022-09-05T09:32:07.000Z,0.53
2022-09-05T09:34:47.269Z,0.60
2022-09-05T09:37:51.746Z,0.50
2022-09-05T09:40:36.836Z,0.60
2022-09-05T09:43:17.667Z,0.47
2022-09-05T09:46:09.871Z,0.50
2022-09-05T09:49:21.661Z,0.60
2022-09-05T09:52:31.872Z,0.60
2022-09-05T09:55:47.188Z,0.65
2022-09-05T09:58:36.805Z,0.50
2022-09-05T10:01:36.097Z,0.65
2022-09-05T10:10:34.567Z,0.60
2022-09-05T10:10:46.314Z,0.40
2022-09-05T10:14:26.252Z,0.50
2022-09-05T10:17:23.347Z,0.70
2022-09-05T10:20:10.527Z,0.70
2022-09-05T10:23:10.660Z,0.45
2022-09-05T10:26:12.357Z,0.70
2022-09-05T10:28:53.320Z,0.50
2022-09-05T10:33:21.284Z,0.57
2022-09-05T10:35:14.642Z,0.60
2022-09-05T10:37:16.022Z,0.60
2022-09-05T10:39:47.940Z,0.50
2022-09-05T10:42:25.332Z,0.80
2022-09-05T10:44:55.790Z,0.50
2022-09-05T10:47:36.078Z,0.68
2022-09-05T10:50:14.216Z,0.60
2022-09-05T10:53:04.912Z,0.60
2022-09-05T10:55:43.284Z,0.60
2022-09-05T10:59:28.983Z,0.77
2022-09-05T11:02:28.150Z,0.80
2022-09-05T11:04:37.203Z,0.30
2022-09-05T11:07:26.663Z,0.57
2022-09-05T11:10:08.126Z,0.63
2022-09-05T11:12:57.643Z,0.70
2022-09-05T11:15:33.812Z,0.50
2022-09-05T11:18:06.396Z,0.40
2022-09-05T11:20:58.218Z,0.68
2022-09-05T11:23:35.042Z,0.68
2022-09-05T11:26:25.973Z,0.80
2022-09-05T11:29:00.482Z,1.05
2022-09-05T11:32:44.844Z,0.40
2022-09-05T11:39:54.426Z,0.60
2022-09-05T11:40:10.269Z,0.50
2022-09-05T11:41:50.974Z,0.40
2022-09-05T11:44:36.447Z,0.50
2022-09-05T11:47:46.396Z,0.38
2022-09-05T11:50:56.491Z,0.43
2022-09-05T11:53:57.285Z,0.60
2022-09-05T11:56:49.016Z,0.57
2022-09-05T11:59:47.401Z,0.40
2022-09-05T12:02:39.367Z,0.45
2022-09-05T12:05:48.891Z,0.40
2022-09-05T12:08:32.360Z,0.35
2022-09-05T12:11:14.008Z,0.47
2022-09-05T12:13:48.574Z,0.52
2022-09-05T12:16:47.461Z,0.60
2022-09-05T12:19:26.899Z,0.40
2022-09-05T12:22:29.032Z,0.40
2022-09-05T12:27:35.454Z,0.50
2022-09-05T12:29:28.087Z,0.50
2022-09-05T12:32:31.020Z,0.40
2022-09-05T12:40:58.061Z,0.30
2022-09-05T12:41:35.259Z,0.50
2022-09-05T12:42:09.561Z,0.57
2022-09-05T12:44:36.696Z,0.40
2022-09-05T12:45:59.249Z,0.60
2022-09-05T12:48:38.676Z,0.50
2022-09-05T12:51:45.267Z,0.50
2022-09-05T12:54:10.379Z,0.40
2022-09-05T13:00:48.177Z,0.40
2022-09-05T13:03:02.254Z,0.43
2022-09-05T13:03:08.338Z,0.40
2022-09-05T13:05:52.252Z,0.40
2022-09-05T13:08:23.233Z,0.40
2022-09-05T13:14:49.601Z,0.40
2022-09-05T13:14:57.460Z,0.50
2022-09-05T13:16:41.406Z,0.40
2022-09-05T13:19:29.353Z,0.50
2022-09-05T13:22:01.039Z,0.57
2022-09-05T13:24:35.826Z,0.30
2022-09-05T13:27:13.841Z,0.60
2022-09-05T13:34:29.442Z,0.20
2022-09-05T13:38:00.572Z,0.40
2022-09-05T13:38:14.441Z,0.60
2022-09-05T13:38:48.429Z,0.40
2022-09-05T13:41:28.568Z,0.45
2022-09-05T13:44:24.895Z,0.25
2022-09-05T13:46:58.562Z,0.30
2022-09-05T13:49:37.167Z,0.13
2022-09-05T13:52:26.314Z,0.50
2022-09-05T13:55:04.636Z,0.35
2022-09-05T13:57:40.177Z,0.20
2022-09-05T14:00:53.816Z,0.30
2022-09-05T14:04:06.053Z,0.17
2022-09-05T14:10:11.822Z,0.47
2022-09-05T14:12:48.683Z,0.40
2022-09-05T14:15:37.493Z,0.40
2022-09-05T14:18:21.659Z,0.43
2022-09-05T14:21:14.212Z,0.20
2022-09-05T14:23:53.805Z,0.40
2022-09-05T14:26:31.626Z,0.22
2022-09-05T14:29:15.114Z,0.20
2022-09-05T14:37:34.411Z,0.20
2022-09-05T14:37:43.463Z,0.30
2022-09-05T14:38:09.589Z,0.20
2022-09-05T14:41:26.473Z,0.40
2022-09-05T14:44:23.779Z,0.10
2022-09-05T14:47:32.490Z,0.40
2022-09-05T14:50:27.701Z,0.60
2022-09-05T14:56:51.562Z,0.40
2022-09-05T15:02:51.310Z,0.30
2022-09-05T15:02:52.077Z,0.40
2022-09-05T15:04:46.572Z,0.50
2022-09-05T15:07:23.917Z,0.60
2022-09-05T15:11:47.296Z,0.28
2022-09-05T15:13:02.259Z,0.15
2022-09-05T15:15:35.824Z,0.20
2022-09-05T15:18:07.478Z,0.30
2022-09-05T15:20:40.164Z,0.40
2022-09-05T15:23:16.734Z,0.20
2022-09-05T15:25:48.271Z,0.50
2022-09-05T15:28:22.448Z,0.30
2022-09-05T15:30:58.966Z,0.43
2022-09-05T15:33:29.910Z,0.30
2022-09-05T15:36:01.413Z,0.30
2022-09-05T15:38:54.283Z,0.30
2022-09-05T15:41:26.423Z,0.27
2022-09-05T15:43:59.737Z,0.50
2022-09-05T15:46:46.316Z,0.30
2022-09-05T15:49:28.255Z,0.30
2022-09-05T15:52:01.315Z,0.40
2022-09-05T15:54:37.331Z,0.30
2022-09-05T15:57:17.497Z,0.20
2022-09-05T15:59:49.656Z,0.40
2022-09-05T16:02:23.285Z,0.15
2022-09-05T16:10:33.693Z,0.20
2022-09-05T16:10:37.464Z,0.20
2022-09-05T16:11:39.374Z,0.10
2022-09-05T16:13:53.058Z,0.20
2022-09-05T16:21:34.313Z,0.10
2022-09-05T16:23:26.207Z,0.10
2022-09-05T16:23:32.024Z,0.20
2022-09-05T16:25:11.810Z,0.10
2022-09-05T16:27:54.338Z,0.10
2022-09-05T16:30:25.451Z,0.10
2022-09-05T16:33:01.154Z,0.10
2022-09-05T16:35:33.845Z,0.10
2022-09-05T16:38:13.025Z,0.10
2022-09-05T16:40:48.562Z,0.03
2022-09-05T16:43:21.477Z,0.10
2022-09-05T16:45:57.571Z,0.20
2022-09-05T16:48:38.196Z,0.20
2022-09-05T16:51:18.280Z,0.40
2022-09-05T16:54:11.062Z,0.70
2022-09-05T16:56:44.722Z,0.50
2022-09-05T16:59:17.638Z,0.50
2022-09-05T17:02:07.231Z,0.40
2022-09-05T17:05:04.382Z,0.98
2022-09-05T17:07:50.067Z,0.60
2022-09-05T17:10:21.008Z,0.50
2022-09-05T17:12:55.078Z,0.73
2022-09-05T17:15:29.357Z,0.98
2022-09-05T17:18:20.389Z,1.20
2022-09-05T17:20:56.016Z,0.60
2022-09-05T17:28:34.665Z,0.70
2022-09-05T17:29:31.265Z,1.08
2022-09-05T17:32:48.193Z,0.60
2022-09-05T17:35:42.471Z,0.90
2022-09-05T17:38:38.363Z,0.77
2022-09-05T17:41:55.430Z,0.80
2022-09-05T17:44:30.071Z,0.68
2022-09-05T17:47:15.293Z,0.77
2022-09-05T17:49:45.989Z,0.90
2022-09-05T17:52:21.071Z,0.77
2022-09-05T17:54:52.550Z,0.80
2022-09-05T17:57:41.382Z,1.65
2022-09-05T18:00:44.170Z,1.05
2022-09-05T18:04:16.268Z,0.80
2022-09-05T18:07:00.656Z,1.30
2022-09-05T18:10:12.632Z,1.10
2022-09-05T18:13:13.348Z,0.93
2022-09-05T18:16:11.770Z,1.00
2022-09-05T18:19:32.681Z,0.80
2022-09-05T18:21:49.558Z,0.80
2022-09-05T18:24:33.481Z,1.20
2022-09-05T18:27:43.905Z,0.90
2022-09-05T18:30:08.201Z,0.82
2022-09-05T18:32:42.403Z,0.70
2022-09-05T18:35:37.145Z,0.40
2022-09-05T18:38:17.778Z,0.60
2022-09-05T18:41:18.289Z,0.50
2022-09-05T18:44:12.279Z,0.90
2022-09-05T18:46:47.057Z,0.90
2022-09-05T18:50:25.140Z,0.90
2022-09-05T18:52:17.078Z,0.90
2022-09-05T18:55:46.349Z,0.90
2022-09-05T18:57:52.311Z,1.00
2022-09-05T19:00:44.661Z,0.90
2022-09-05T19:03:19.434Z,0.93
2022-09-05T19:05:54.751Z,0.85
2022-09-05T19:08:31.879Z,1.00
2022-09-05T19:11:27.549Z,0.80
2022-09-05T19:14:14.217Z,1.10
2022-09-05T19:16:48.390Z,0.90
2022-09-05T19:19:24.879Z,1.10
2022-09-05T19:22:52.608Z,1.20
2022-09-05T19:24:47.077Z,1.10
2022-09-05T19:29:01.344Z,1.10
2022-09-05T19:36:54.024Z,1.03
2022-09-05T19:36:56.709Z,1.00
2022-09-05T19:37:03.121Z,0.87
2022-09-05T19:41:31.789Z,0.80
2022-09-05T19:47:40.430Z,0.77
2022-09-05T19:47:41.669Z,0.90
2022-09-05T19:47:56.107Z,0.75
2022-09-05T19:50:11.531Z,0.70
2022-09-05T19:52:41.086Z,0.70
2022-09-05T19:55:21.885Z,0.90
2022-09-05T19:57:54.210Z,1.40
2022-09-05T20:00:45.910Z,1.40
2022-09-05T20:03:38.586Z,1.00
2022-09-05T20:06:29.232Z,0.80
2022-09-05T20:09:10.812Z,0.80
2022-09-05T20:11:45.681Z,0.90
2022-09-05T20:14:20.518Z,0.82
2022-09-05T20:16:50.437Z,0.77
2022-09-05T20:19:28.465Z,0.90
2022-09-05T20:21:59.770Z,0.80
2022-09-05T20:24:49.258Z,0.90
2022-09-05T20:27:17.957Z,0.90
2022-09-05T20:29:56.955Z,2.00
2022-09-05T20:32:39.493Z,1.38
2022-09-05T20:36:31.375Z,1.20
2022-09-05T20:43:16.978Z,0.90
2022-09-05T20:43:26.808Z,1.00
2022-09-05T20:44:01.517Z,0.85
2022-09-05T20:48:31.814Z,0.85
2022-09-05T20:54:14.518Z,0.90
2022-09-05T20:54:22.172Z,0.80
2022-09-05T20:55:38.898Z,0.80
2022-09-05T20:58:12.170Z,0.88
2022-09-05T21:00:46.366Z,1.00
2022-09-05T21:03:36.754Z,0.80
2022-09-05T21:06:22.715Z,0.98
2022-09-05T21:08:55.380Z,0.80
2022-09-05T21:11:32.808Z,0.90
2022-09-05T21:14:04.750Z,1.10
2022-09-05T21:16:36.733Z,0.90
2022-09-05T21:19:05.607Z,1.03
2022-09-05T21:21:35.782Z,1.00
2022-09-05T21:24:17.657Z,0.90
2022-09-05T21:26:49.377Z,1.02
2022-09-05T21:29:27.465Z,0.70
2022-09-05T21:32:10.275Z,1.20
2022-09-05T21:34:45.300Z,0.90
2022-09-05T21:37:16.247Z,0.90
2022-09-05T21:39:59.499Z,0.90
2022-09-05T21:46:02.581Z,0.80
2022-09-05T21:47:44.485Z,1.08
2022-09-05T21:48:10.552Z,0.90
2022-09-05T21:50:43.065Z,0.80
2022-09-05T21:55:19.540Z,0.88
2022-09-05T21:59:16.566Z,0.80
2022-09-05T21:59:32.589Z,0.90
2022-09-05T22:01:58.078Z,0.88
2022-09-05T22:04:27.171Z,0.80
2022-09-05T22:06:58.647Z,0.70
2022-09-05T22:09:27.335Z,1.00
2022-09-05T22:11:57.761Z,0.77
2022-09-05T22:14:26.875Z,1.00
2022-09-05T22:16:58.951Z,0.80
2022-09-05T22:19:37.597Z,0.80
2022-09-05T22:22:16.477Z,0.80
2022-09-05T22:24:50.960Z,0.82
2022-09-05T22:27:22.594Z,0.70
2022-09-05T22:29:51.818Z,0.80
2022-09-05T22:32:33.806Z,0.70
2022-09-05T22:35:27.421Z,0.70
2022-09-05T22:38:00.347Z,0.70
2022-09-05T22:40:30.492Z,0.90
2022-09-05T22:43:02.278Z,0.80
2022-09-05T22:45:32.740Z,0.88
2022-09-05T22:48:06.712Z,0.77
2022-09-05T22:50:35.293Z,0.85
2022-09-05T22:53:06.894Z,0.73
2022-09-05T22:55:35.995Z,0.80
2022-09-05T22:58:07.062Z,0.80
2022-09-05T23:00:36.283Z,0.73
2022-09-05T23:03:07.126Z,0.70
2022-09-05T23:05:36.460Z,0.80
2022-09-05T23:08:06.627Z,0.70
2022-09-05T23:10:36.536Z,0.70
2022-09-05T23:13:08.429Z,0.80
2022-09-05T23:15:37.991Z,0.90
2022-09-05T23:18:07.248Z,0.70
2022-09-05T23:20:36.231Z,0.80
2022-09-05T23:23:06.468Z,0.80
2022-09-05T23:25:36.239Z,0.80
2022-09-05T23:28:08.874Z,0.73
2022-09-05T23:30:38.083Z,0.90
2022-09-05T23:33:08.292Z,0.80
2022-09-05T23:35:37.772Z,0.98
2022-09-05T23:38:11.176Z,0.95
2022-09-05T23:40:40.204Z,0.80
2022-09-05T23:43:10.178Z,0.90
2022-09-05T23:45:38.623Z,0.80
2022-09-05T23:48:07.087Z,0.73
2022-09-05T23:50:35.530Z,0.80
2022-09-05T23:53:04.626Z,0.80
2022-09-05T23:55:33.582Z,0.70
2022-09-05T23:58:02.065Z,0.85
